Time;durP1;ratioP1;P1;durP2;ratioP2;P2;SDS_P1;SDS_P2;PMS_P1;PMS_P2;Temp;Humidity;BMP_temperature;BMP_pressure;BME280_temperature;BME280_humidity;BME280_pressure;Samples;Min_cycle;Max_cycle;Signal;HPM_P1;HPM_P2
2021/10/08 00:02:22;;;;;;;21.93;12.10;;;;;;;;;;5014466;28;20509;-46
2021/10/08 00:04:48;;;;;;;21.60;10.90;;;;;;;;;;5014519;28;20453;-46
2021/10/08 00:07:14;;;;;;;20.00;10.30;;;;;;;;;;5014578;28;20744;-46
2021/10/08 00:09:40;;;;;;;15.47;10.60;;;;;;;;;;5014412;28;20421;-45
2021/10/08 00:12:06;;;;;;;16.90;10.93;;;;;;;;;;5014293;28;20402;-46
2021/10/08 00:14:32;;;;;;;17.17;11.03;;;;;;;;;;5014329;28;20403;-46
2021/10/08 00:16:58;;;;;;;16.70;10.80;;;;;;;;;;5014379;28;20485;-47
2021/10/08 00:19:24;;;;;;;16.63;10.60;;;;;;;;;;5013462;28;20421;-46
2021/10/08 00:21:50;;;;;;;17.90;11.50;;;;;;;;;;5014114;28;20405;-47
2021/10/08 00:24:16;;;;;;;18.87;12.00;;;;;;;;;;5014340;28;20431;-47
2021/10/08 00:26:42;;;;;;;19.90;12.43;;;;;;;;;;5014155;28;20542;-46
2021/10/08 00:29:09;;;;;;;15.60;10.60;;;;;;;;;;5013966;28;20443;-46
2021/10/08 00:31:35;;;;;;;21.90;11.10;;;;;;;;;;5014186;28;20430;-47
2021/10/08 00:34:01;;;;;;;16.60;11.20;;;;;;;;;;5013935;28;20401;-47
2021/10/08 00:36:27;;;;;;;16.80;10.67;;;;;;;;;;5014031;28;20469;-46
2021/10/08 00:38:53;;;;;;;14.80;10.50;;;;;;;;;;5014016;28;20475;-46
2021/10/08 00:41:19;;;;;;;18.17;9.80;;;;;;;;;;5014425;28;20410;-46
2021/10/08 00:43:46;;;;;;;20.50;12.37;;;;;;;;;;5013643;28;20440;-48
2021/10/08 00:46:12;;;;;;;19.83;11.27;;;;;;;;;;5013840;28;20953;-47
2021/10/08 00:48:38;;;;;;;24.93;12.10;;;;;;;;;;5013911;28;20406;-46
2021/10/08 00:51:04;;;;;;;23.07;12.63;;;;;;;;;;5013721;28;20471;-47
2021/10/08 00:53:30;;;;;;;22.43;12.67;;;;;;;;;;5013634;28;20407;-48
2021/10/08 00:55:56;;;;;;;20.27;11.23;;;;;;;;;;5013712;28;20477;-46
2021/10/08 00:58:22;;;;;;;36.57;11.47;;;;;;;;;;5013491;28;20413;-46
2021/10/08 01:00:50;;;;;;;23.03;12.07;;;;;;;;;;5013451;28;20429;-46
2021/10/08 01:03:20;;;;;;;17.10;10.57;;;;;;;;;;5012363;28;20402;-45
2021/10/08 01:05:46;;;;;;;16.10;11.00;;;;;;;;;;5012982;28;20983;-45
2021/10/08 01:08:12;;;;;;;18.10;11.23;;;;;;;;;;5012926;28;20404;-46
2021/10/08 01:10:39;;;;;;;19.73;12.17;;;;;;;;;;5013302;28;20509;-46
2021/10/08 01:13:06;;;;;;;23.50;10.97;;;;;;;;;;5013069;28;20410;-46
2021/10/08 01:15:32;;;;;;;16.03;11.10;;;;;;;;;;5013210;28;20813;-47
2021/10/08 01:17:58;;;;;;;21.83;11.50;;;;;;;;;;5013186;28;20498;-46
2021/10/08 01:20:25;;;;;;;24.53;12.00;;;;;;;;;;5013290;28;20949;-46
2021/10/08 01:22:53;;;;;;;23.80;11.73;;;;;;;;;;5012989;28;20405;-46
2021/10/08 01:25:19;;;;;;;26.47;12.60;;;;;;;;;;5012996;28;20503;-46
2021/10/08 01:27:45;;;;;;;24.23;12.23;;;;;;;;;;5013074;28;20529;-46
2021/10/08 01:30:12;;;;;;;29.13;12.23;;;;;;;;;;5012877;28;20531;-46
2021/10/08 01:32:38;;;;;;;47.00;13.10;;;;;;;;;;5012820;28;20396;-45
2021/10/08 01:35:04;;;;;;;52.20;13.20;;;;;;;;;;5012961;28;20777;-46
2021/10/08 01:37:30;;;;;;;75.93;14.47;;;;;;;;;;5012941;28;20408;-46
2021/10/08 01:39:56;;;;;;;143.70;15.03;;;;;;;;;;5012726;28;21003;-46
2021/10/08 01:42:22;;;;;;;46.77;11.60;;;;;;;;;;5012646;28;20402;-46
2021/10/08 01:44:48;;;;;;;38.83;12.30;;;;;;;;;;5012745;28;20477;-46
2021/10/08 01:47:14;;;;;;;48.30;13.23;;;;;;;;;;5012725;28;20408;-46
2021/10/08 01:49:40;;;;;;;68.70;14.27;;;;;;;;;;5012699;28;20422;-46
2021/10/08 01:52:06;;;;;;;41.30;11.27;;;;;;;;;;5012513;28;20407;-46
2021/10/08 01:54:32;;;;;;;27.10;11.37;;;;;;;;;;5012624;28;20405;-45
2021/10/08 01:56:59;;;;;;;58.70;12.97;;;;;;;;;;5012577;28;20455;-46
2021/10/08 01:59:25;;;;;;;28.50;12.67;;;;;;;;;;5012513;28;20515;-46
2021/10/08 02:01:51;;;;;;;56.70;14.43;;;;;;;;;;5012316;28;20496;-46
2021/10/08 02:04:16;;;;;;;35.93;12.60;;;;;;;;;;5012533;28;20408;-46
2021/10/08 02:06:42;;;;;;;17.73;11.57;;;;;;;;;;5012333;28;20529;-47
2021/10/08 02:09:10;;;;;;;75.30;12.30;;;;;;;;;;5012267;28;20425;-46
2021/10/08 02:11:36;;;;;;;38.30;11.37;;;;;;;;;;5012442;28;20401;-46
2021/10/08 02:14:02;;;;;;;40.60;11.60;;;;;;;;;;5012169;28;20455;-45
2021/10/08 02:16:28;;;;;;;52.57;14.00;;;;;;;;;;5012474;28;20436;-45
2021/10/08 02:18:56;;;;;;;56.90;12.77;;;;;;;;;;5012225;28;20405;-45
2021/10/08 02:21:23;;;;;;;35.40;12.17;;;;;;;;;;5012303;28;20929;-45
2021/10/08 02:23:49;;;;;;;33.00;10.67;;;;;;;;;;5011904;28;20406;-46
2021/10/08 02:26:16;;;;;;;22.47;10.23;;;;;;;;;;5012197;28;20469;-46
2021/10/08 02:28:42;;;;;;;45.57;12.20;;;;;;;;;;5012236;28;20457;-45
2021/10/08 02:31:08;;;;;;;15.23;10.50;;;;;;;;;;5012273;28;20656;-46
2021/10/08 02:33:34;;;;;;;46.97;10.20;;;;;;;;;;5011931;28;20413;-45
2021/10/08 02:36:01;;;;;;;49.63;12.37;;;;;;;;;;5012101;28;20470;-47
2021/10/08 02:38:28;;;;;;;51.87;11.17;;;;;;;;;;5011891;28;20405;-46
2021/10/08 02:40:54;;;;;;;26.47;10.43;;;;;;;;;;5013041;28;20429;-46
2021/10/08 02:43:20;;;;;;;87.10;14.00;;;;;;;;;;5018375;28;20413;-46
2021/10/08 02:45:46;;;;;;;42.23;11.63;;;;;;;;;;5018470;28;20451;-46
2021/10/08 02:48:12;;;;;;;28.30;9.93;;;;;;;;;;5018461;28;20459;-46
2021/10/08 02:50:38;;;;;;;63.87;11.80;;;;;;;;;;5018466;28;20431;-45
2021/10/08 02:53:04;;;;;;;134.73;13.50;;;;;;;;;;5016940;28;20460;-46
2021/10/08 02:55:30;;;;;;;53.63;11.63;;;;;;;;;;5018473;28;20413;-45
2021/10/08 02:57:56;;;;;;;22.93;8.93;;;;;;;;;;5018360;28;20453;-46
2021/10/08 03:00:22;;;;;;;18.87;10.00;;;;;;;;;;5018469;28;20468;-46
2021/10/08 03:02:48;;;;;;;33.03;10.50;;;;;;;;;;5018188;28;20519;-47
2021/10/08 03:05:14;;;;;;;21.93;8.57;;;;;;;;;;5018277;28;20449;-46
2021/10/08 03:07:40;;;;;;;27.03;9.00;;;;;;;;;;5018254;28;20443;-47
2021/10/08 03:10:07;;;;;;;108.03;12.53;;;;;;;;;;5018254;28;20442;-47
2021/10/08 03:12:33;;;;;;;29.10;8.80;;;;;;;;;;5018082;28;20400;-46
2021/10/08 03:15:00;;;;;;;15.57;8.97;;;;;;;;;;5018232;28;20904;-46
2021/10/08 03:17:25;;;;;;;46.90;10.20;;;;;;;;;;5018194;28;20896;-46
2021/10/08 03:19:51;;;;;;;47.53;10.87;;;;;;;;;;5018107;28;20438;-46
2021/10/08 03:22:17;;;;;;;23.90;8.60;;;;;;;;;;5017999;28;20441;-47
2021/10/08 03:24:44;;;;;;;80.43;10.90;;;;;;;;;;5018119;28;20558;-47
2021/10/08 03:27:11;;;;;;;28.13;8.57;;;;;;;;;;5018000;28;20939;-46
2021/10/08 03:29:37;;;;;;;62.37;10.73;;;;;;;;;;5017913;28;20867;-45
2021/10/08 03:32:03;;;;;;;65.17;10.27;;;;;;;;;;5017883;28;20434;-46
2021/10/08 03:34:29;;;;;;;14.83;7.50;;;;;;;;;;5018077;28;20897;-45
2021/10/08 03:36:59;;;;;;;11.03;7.97;;;;;;;;;;5017977;28;20411;-46
2021/10/08 03:39:27;;;;;;;30.03;10.20;;;;;;;;;;5017981;28;20465;-46
2021/10/08 03:41:54;;;;;;;27.03;9.07;;;;;;;;;;5017820;28;20392;-46
2021/10/08 03:44:21;;;;;;;19.50;8.17;;;;;;;;;;5018013;28;20408;-45
2021/10/08 03:46:51;;;;;;;59.33;10.80;;;;;;;;;;5017868;28;20545;-45
2021/10/08 03:49:17;;;;;;;44.60;9.33;;;;;;;;;;5017956;28;20413;-47
2021/10/08 03:51:45;;;;;;;41.33;9.23;;;;;;;;;;5017980;28;20760;-46
2021/10/08 03:54:11;;;;;;;17.77;8.97;;;;;;;;;;5013768;28;20406;-45
2021/10/08 03:56:37;;;;;;;45.57;10.67;;;;;;;;;;5014829;28;20409;-45
2021/10/08 03:59:03;;;;;;;48.50;9.60;;;;;;;;;;5014675;28;21904;-45
2021/10/08 04:01:29;;;;;;;30.83;10.77;;;;;;;;;;5014763;28;20900;-44
2021/10/08 04:03:55;;;;;;;24.20;9.30;;;;;;;;;;5014471;28;20757;-45
2021/10/08 04:06:21;;;;;;;20.40;9.00;;;;;;;;;;5014713;28;20470;-45
2021/10/08 04:08:47;;;;;;;20.13;10.10;;;;;;;;;;5014617;28;20481;-46
2021/10/08 04:11:13;;;;;;;30.63;9.37;;;;;;;;;;5014944;28;20766;-45
2021/10/08 04:13:39;;;;;;;26.10;9.43;;;;;;;;;;5014313;28;20401;-46
2021/10/08 04:16:05;;;;;;;49.23;10.63;;;;;;;;;;5014490;28;20404;-46
2021/10/08 04:18:33;;;;;;;42.03;10.50;;;;;;;;;;5014348;28;20409;-46
2021/10/08 04:20:59;;;;;;;24.87;9.57;;;;;;;;;;5014310;28;20425;-46
2021/10/08 04:23:25;;;;;;;31.57;9.40;;;;;;;;;;5014119;28;20462;-48
2021/10/08 04:25:51;;;;;;;37.57;9.50;;;;;;;;;;5014281;28;20460;-46
2021/10/08 04:28:17;;;;;;;45.00;10.87;;;;;;;;;;5014129;28;20461;-45
2021/10/08 04:30:44;;;;;;;35.13;9.37;;;;;;;;;;5013932;28;20545;-45
2021/10/08 04:33:13;;;;;;;49.77;10.37;;;;;;;;;;5013885;28;20962;-46
2021/10/08 04:35:39;;;;;;;36.63;9.00;;;;;;;;;;5014123;28;20762;-45
2021/10/08 04:38:05;;;;;;;52.87;9.97;;;;;;;;;;5014016;28;20410;-46
2021/10/08 04:40:31;;;;;;;32.37;8.87;;;;;;;;;;5013967;28;20427;-46
2021/10/08 04:42:57;;;;;;;38.57;8.30;;;;;;;;;;5013687;28;20405;-47
2021/10/08 04:45:23;;;;;;;18.47;7.70;;;;;;;;;;5013870;28;20463;-46
2021/10/08 04:47:49;;;;;;;70.23;9.13;;;;;;;;;;5014080;28;20408;-46
2021/10/08 04:50:17;;;;;;;64.40;9.40;;;;;;;;;;5013782;28;20792;-46
2021/10/08 04:52:43;;;;;;;108.00;10.98;;;;;;;;;;5013578;28;20435;-45
2021/10/08 04:55:10;;;;;;;28.73;7.87;;;;;;;;;;5013752;28;20203;-45
2021/10/08 04:57:36;;;;;;;20.80;6.60;;;;;;;;;;5013564;28;20403;-46
2021/10/08 05:00:03;;;;;;;25.17;6.90;;;;;;;;;;5013494;28;20435;-46
2021/10/08 05:02:29;;;;;;;69.63;8.43;;;;;;;;;;5013405;28;20494;-45
2021/10/08 05:04:55;;;;;;;23.60;7.63;;;;;;;;;;5013126;28;20276;-45
2021/10/08 05:07:22;;;;;;;85.83;8.63;;;;;;;;;;5013466;28;20399;-45
2021/10/08 05:09:48;;;;;;;49.55;8.95;;;;;;;;;;5013438;28;21026;-46
2021/10/08 05:12:15;;;;;;;25.37;7.60;;;;;;;;;;5013211;28;20281;-45
2021/10/08 05:14:41;;;;;;;90.13;9.93;;;;;;;;;;5013286;28;20888;-46
2021/10/08 05:17:07;;;;;;;17.60;6.57;;;;;;;;;;5013276;28;20264;-46
2021/10/08 05:19:33;;;;;;;39.00;7.90;;;;;;;;;;5013398;28;20719;-47
2021/10/08 05:21:59;;;;;;;33.40;7.70;;;;;;;;;;5013176;28;20416;-47
2021/10/08 05:24:25;;;;;;;63.80;9.20;;;;;;;;;;5013180;28;20440;-45
2021/10/08 05:26:51;;;;;;;46.37;11.27;;;;;;;;;;5013066;28;20495;-45
2021/10/08 05:29:17;;;;;;;43.22;8.88;;;;;;;;;;5012852;28;20442;-45
2021/10/08 05:31:43;;;;;;;65.72;9.45;;;;;;;;;;5012985;28;20542;-45
2021/10/08 05:34:11;;;;;;;67.77;8.93;;;;;;;;;;5013755;28;20165;-44
2021/10/08 05:36:36;;;;;;;53.47;8.88;;;;;;;;;;5012953;28;20396;-45
2021/10/08 05:39:03;;;;;;;39.47;7.93;;;;;;;;;;5012897;28;20182;-46
2021/10/08 05:41:29;;;;;;;22.43;8.33;;;;;;;;;;5012874;28;20458;-45
2021/10/08 05:43:55;;;;;;;52.47;10.33;;;;;;;;;;5012624;28;20412;-45
2021/10/08 05:46:21;;;;;;;28.20;9.67;;;;;;;;;;5012700;28;20463;-45
2021/10/08 05:48:47;;;;;;;70.30;11.07;;;;;;;;;;5012699;28;20407;-46
2021/10/08 05:51:13;;;;;;;35.53;9.20;;;;;;;;;;5012678;28;20416;-48
2021/10/08 05:53:39;;;;;;;31.90;9.57;;;;;;;;;;5012666;28;20749;-44
2021/10/08 05:56:05;;;;;;;50.33;9.23;;;;;;;;;;5012655;28;20478;-44
2021/10/08 05:58:31;;;;;;;48.80;8.83;;;;;;;;;;5012515;28;20414;-44
2021/10/08 06:00:57;;;;;;;89.13;12.97;;;;;;;;;;5012583;28;20443;-44
2021/10/08 06:03:23;;;;;;;203.90;21.87;;;;;;;;;;5012412;28;20455;-44
2021/10/08 06:05:49;;;;;;;127.57;19.57;;;;;;;;;;5012498;28;20495;-44
2021/10/08 06:08:15;;;;;;;64.10;13.23;;;;;;;;;;5011143;28;20412;-44
2021/10/08 06:10:41;;;;;;;101.57;13.53;;;;;;;;;;5012317;28;20992;-44
2021/10/08 06:13:08;;;;;;;56.77;12.90;;;;;;;;;;5012120;28;20487;-44
2021/10/08 06:15:34;;;;;;;37.67;13.23;;;;;;;;;;5011950;28;20420;-44
2021/10/08 06:18:00;;;;;;;86.07;15.93;;;;;;;;;;5012113;28;20415;-44
2021/10/08 06:20:26;;;;;;;72.77;16.13;;;;;;;;;;5012224;28;20468;-44
2021/10/08 06:22:52;;;;;;;44.63;14.40;;;;;;;;;;5012050;28;20935;-44
2021/10/08 06:25:19;;;;;;;48.00;14.70;;;;;;;;;;5012075;28;20447;-44
2021/10/08 06:27:46;;;;;;;84.73;15.90;;;;;;;;;;5011096;28;20510;-43
2021/10/08 06:30:13;;;;;;;44.80;13.00;;;;;;;;;;5011895;28;20451;-45
2021/10/08 06:32:40;;;;;;;19.67;11.77;;;;;;;;;;5011955;28;20414;-44
2021/10/08 06:35:06;;;;;;;37.10;12.47;;;;;;;;;;5012044;28;20404;-44
2021/10/08 06:37:32;;;;;;;19.93;10.50;;;;;;;;;;5012193;28;20417;-44
2021/10/08 06:39:58;;;;;;;27.63;9.57;;;;;;;;;;5010493;28;20844;-44
2021/10/08 06:42:24;;;;;;;42.53;10.20;;;;;;;;;;5011954;28;20464;-45
2021/10/08 06:44:54;;;;;;;24.97;9.90;;;;;;;;;;5012057;28;20944;-45
2021/10/08 06:47:20;;;;;;;13.80;9.43;;;;;;;;;;5011979;28;20497;-44
2021/10/08 06:49:46;;;;;;;19.40;10.40;;;;;;;;;;5011934;28;20489;-48
2021/10/08 06:52:13;;;;;;;20.87;11.40;;;;;;;;;;5011809;28;20712;-44
2021/10/08 06:54:38;;;;;;;21.03;11.20;;;;;;;;;;5012114;28;20407;-44
2021/10/08 06:57:04;;;;;;;90.93;16.17;;;;;;;;;;5011829;28;20752;-45
2021/10/08 06:59:30;;;;;;;21.53;11.67;;;;;;;;;;5011779;28;20479;-44
2021/10/08 07:01:56;;;;;;;28.43;11.13;;;;;;;;;;5011477;28;20401;-44
2021/10/08 07:04:22;;;;;;;35.10;11.83;;;;;;;;;;5010441;28;20416;-44
2021/10/08 07:06:48;;;;;;;19.30;11.00;;;;;;;;;;5011754;28;20487;-45
2021/10/08 07:09:14;;;;;;;17.17;10.30;;;;;;;;;;5011570;28;20918;-45
2021/10/08 07:11:40;;;;;;;22.07;9.07;;;;;;;;;;5011618;28;20918;-45
2021/10/08 07:14:06;;;;;;;20.87;10.97;;;;;;;;;;5011530;28;20475;-45
2021/10/08 07:16:32;;;;;;;19.13;9.00;;;;;;;;;;5011659;28;20896;-46
2021/10/08 07:19:07;;;;;;;22.17;11.17;;;;;;;;;;5011589;28;20493;-48
2021/10/08 07:21:33;;;;;;;23.70;11.70;;;;;;;;;;5011655;28;20913;-45
2021/10/08 07:23:59;;;;;;;19.23;10.70;;;;;;;;;;5011372;28;20415;-44
2021/10/08 07:26:25;;;;;;;15.40;9.60;;;;;;;;;;5011368;28;20488;-45
2021/10/08 07:28:51;;;;;;;13.80;9.33;;;;;;;;;;5014997;28;20404;-47
2021/10/08 07:31:17;;;;;;;13.97;8.87;;;;;;;;;;5015303;28;20441;-47
2021/10/08 07:33:43;;;;;;;14.33;9.20;;;;;;;;;;5014866;28;20437;-47
2021/10/08 07:36:10;;;;;;;12.27;8.50;;;;;;;;;;5015380;28;20402;-44
2021/10/08 07:38:38;;;;;;;10.40;7.83;;;;;;;;;;5014116;28;20415;-44
2021/10/08 07:41:05;;;;;;;12.50;8.70;;;;;;;;;;5015229;28;20433;-43
2021/10/08 07:43:33;;;;;;;10.37;7.80;;;;;;;;;;4997828;28;20505;-43
2021/10/08 07:46:00;;;;;;;10.97;7.73;;;;;;;;;;5015247;28;20450;-45
2021/10/08 07:48:27;;;;;;;15.30;8.80;;;;;;;;;;5015275;28;20411;-44
2021/10/08 07:50:53;;;;;;;15.20;10.90;;;;;;;;;;5014796;28;20422;-44
2021/10/08 07:53:19;;;;;;;18.47;11.73;;;;;;;;;;5014632;28;20407;-44
2021/10/08 07:55:45;;;;;;;15.03;9.63;;;;;;;;;;5013673;28;20434;-47
2021/10/08 07:58:11;;;;;;;16.57;11.47;;;;;;;;;;5014750;28;20502;-48
2021/10/08 08:00:37;;;;;;;14.40;9.70;;;;;;;;;;5014772;28;20435;-44
2021/10/08 08:03:03;;;;;;;11.83;10.10;;;;;;;;;;5014595;28;20895;-44
2021/10/08 08:05:29;;;;;;;15.20;10.40;;;;;;;;;;5014448;28;20538;-44
2021/10/08 08:07:55;;;;;;;17.83;10.37;;;;;;;;;;5014596;28;20901;-45
2021/10/08 08:10:22;;;;;;;13.83;11.07;;;;;;;;;;5014537;28;20457;-45
2021/10/08 08:12:48;;;;;;;14.10;10.63;;;;;;;;;;5014372;28;20403;-47
2021/10/08 08:15:14;;;;;;;13.27;10.10;;;;;;;;;;5014501;28;20407;-44
2021/10/08 08:17:41;;;;;;;14.97;10.53;;;;;;;;;;5014883;28;20422;-47
2021/10/08 08:20:07;;;;;;;17.27;10.80;;;;;;;;;;5014213;28;20461;-45
2021/10/08 08:22:33;;;;;;;10.60;8.83;;;;;;;;;;5014075;28;20404;-45
2021/10/08 08:24:59;;;;;;;11.33;8.57;;;;;;;;;;5014281;28;20455;-45
2021/10/08 08:27:25;;;;;;;13.97;10.40;;;;;;;;;;5014206;28;20400;-45
2021/10/08 08:29:51;;;;;;;11.37;8.60;;;;;;;;;;5014110;28;20529;-46
2021/10/08 08:32:17;;;;;;;12.97;9.70;;;;;;;;;;5013994;28;20404;-48
2021/10/08 08:34:43;;;;;;;14.17;10.50;;;;;;;;;;5014143;28;20490;-45
2021/10/08 08:37:09;;;;;;;11.83;9.10;;;;;;;;;;5014045;28;20402;-43
2021/10/08 08:39:38;;;;;;;13.17;8.90;;;;;;;;;;5013329;28;20419;-45
2021/10/08 08:42:04;;;;;;;11.43;9.53;;;;;;;;;;5013831;28;20432;-46
2021/10/08 08:44:32;;;;;;;15.93;10.30;;;;;;;;;;5013919;28;20840;-46
2021/10/08 08:46:59;;;;;;;12.70;10.00;;;;;;;;;;5013837;28;20547;-47
2021/10/08 08:49:25;;;;;;;15.80;10.97;;;;;;;;;;5013724;28;21004;-45
2021/10/08 08:51:51;;;;;;;16.00;10.20;;;;;;;;;;5013696;28;20404;-45
2021/10/08 08:54:18;;;;;;;9.63;7.83;;;;;;;;;;5013703;28;20407;-45
2021/10/08 08:56:44;;;;;;;8.27;7.47;;;;;;;;;;5013711;28;20407;-46
2021/10/08 08:59:11;;;;;;;10.37;7.47;;;;;;;;;;5013736;28;20464;-45
2021/10/08 09:01:57;;;;;;;8.63;6.43;;;;;;;;;;5012456;28;20436;-49
2021/10/08 09:04:24;;;;;;;8.40;6.13;;;;;;;;;;5013594;28;20389;-46
2021/10/08 09:06:51;;;;;;;7.20;6.03;;;;;;;;;;5013648;28;20530;-46
2021/10/08 09:09:18;;;;;;;7.53;6.67;;;;;;;;;;5013499;28;20418;-47
2021/10/08 09:11:45;;;;;;;6.90;6.20;;;;;;;;;;5013403;28;20461;-48
2021/10/08 09:14:14;;;;;;;6.20;5.60;;;;;;;;;;5013267;28;20431;-47
2021/10/08 09:17:00;;;;;;;6.63;5.57;;;;;;;;;;5013345;28;20417;-48
2021/10/08 09:19:44;;;;;;;6.83;5.93;;;;;;;;;;5013488;28;20471;-49
2021/10/08 09:22:10;;;;;;;6.33;5.67;;;;;;;;;;5013145;28;20410;-47
2021/10/08 09:24:36;;;;;;;6.10;5.60;;;;;;;;;;5013278;28;20410;-46
2021/10/08 09:27:12;;;;;;;5.80;5.30;;;;;;;;;;5011827;28;20551;-46
2021/10/08 09:29:46;;;;;;;5.90;5.37;;;;;;;;;;5012911;28;20933;-46
2021/10/08 09:32:11;;;;;;;5.20;4.80;;;;;;;;;;5012973;28;20872;-46
2021/10/08 09:34:37;;;;;;;7.00;6.40;;;;;;;;;;5013099;28;20490;-45
2021/10/08 09:37:06;;;;;;;6.60;6.00;;;;;;;;;;5013390;28;20879;-47
2021/10/08 09:39:33;;;;;;;6.90;6.20;;;;;;;;;;5012837;28;20953;-46
2021/10/08 09:42:03;;;;;;;7.70;6.30;;;;;;;;;;5012460;28;20408;-47
2021/10/08 09:44:30;;;;;;;7.17;6.17;;;;;;;;;;5011870;28;20757;-47
2021/10/08 09:47:09;;;;;;;7.17;6.43;;;;;;;;;;5012628;28;20552;-46
2021/10/08 09:49:35;;;;;;;8.43;6.67;;;;;;;;;;5012923;28;20422;-46
2021/10/08 09:52:18;;;;;;;7.83;7.03;;;;;;;;;;5011606;28;20403;-45
2021/10/08 09:54:49;;;;;;;7.10;6.40;;;;;;;;;;5012693;28;20621;-46
2021/10/08 09:57:15;;;;;;;8.07;6.47;;;;;;;;;;5012850;28;20407;-49
2021/10/08 09:59:42;;;;;;;7.50;6.70;;;;;;;;;;5012995;28;20501;-49
2021/10/08 10:02:08;;;;;;;11.63;6.40;;;;;;;;;;5011973;28;20918;-46
2021/10/08 10:04:46;;;;;;;10.00;6.90;;;;;;;;;;5012412;28;20434;-45
2021/10/08 10:07:17;;;;;;;10.47;6.40;;;;;;;;;;5012421;28;20438;-46
2021/10/08 10:09:43;;;;;;;8.40;6.10;;;;;;;;;;5012433;28;20447;-45
2021/10/08 10:12:09;;;;;;;8.23;7.37;;;;;;;;;;5012199;28;20394;-45
2021/10/08 10:14:35;;;;;;;8.10;7.30;;;;;;;;;;5012171;28;20395;-46
2021/10/08 10:17:03;;;;;;;6.70;5.83;;;;;;;;;;5012168;28;20407;-46
2021/10/08 10:19:32;;;;;;;11.50;6.33;;;;;;;;;;5012169;28;20442;-46
2021/10/08 10:22:00;;;;;;;8.50;5.73;;;;;;;;;;5012100;28;20491;-50
2021/10/08 10:24:28;;;;;;;7.40;6.60;;;;;;;;;;5012220;28;20395;-50
2021/10/08 10:26:54;;;;;;;7.30;6.60;;;;;;;;;;5011960;28;20459;-46
2021/10/08 10:29:21;;;;;;;7.67;6.73;;;;;;;;;;5011982;28;20442;-46
2021/10/08 10:31:47;;;;;;;9.20;5.97;;;;;;;;;;5012063;28;20490;-48
2021/10/08 10:34:14;;;;;;;9.53;6.60;;;;;;;;;;5012139;28;20883;-47
2021/10/08 10:36:41;;;;;;;7.70;5.87;;;;;;;;;;5012051;28;20414;-47
2021/10/08 10:39:13;;;;;;;6.23;5.63;;;;;;;;;;5012086;28;20518;-46
2021/10/08 10:41:39;;;;;;;7.43;5.57;;;;;;;;;;5011899;28;20411;-47
2021/10/08 10:44:13;;;;;;;5.73;5.20;;;;;;;;;;5012216;28;20403;-45
2021/10/08 10:47:13;;;;;;;7.47;5.67;;;;;;;;;;5012427;28;20502;-45
2021/10/08 10:49:40;;;;;;;6.10;5.60;;;;;;;;;;5013601;28;20800;-47
2021/10/08 10:52:11;;;;;;;8.17;6.03;;;;;;;;;;5013606;28;20413;-51
2021/10/08 10:54:37;;;;;;;6.13;5.53;;;;;;;;;;5012461;28;20786;-49
2021/10/08 10:57:04;;;;;;;8.23;6.30;;;;;;;;;;5013731;28;20415;-46
2021/10/08 10:59:31;;;;;;;10.30;8.20;;;;;;;;;;5011410;28;20518;-45
2021/10/08 11:02:11;;;;;;;7.20;6.60;;;;;;;;;;5011719;28;20407;-46
2021/10/08 11:04:38;;;;;;;7.83;6.40;;;;;;;;;;5016246;28;20842;-49
2021/10/08 11:07:08;;;;;;;7.70;6.93;;;;;;;;;;4998478;28;20466;-46
2021/10/08 11:09:35;;;;;;;9.63;6.67;;;;;;;;;;5015540;28;20419;-46
2021/10/08 11:12:20;;;;;;;7.07;6.43;;;;;;;;;;5015530;28;20403;-46
2021/10/08 11:14:46;;;;;;;8.20;6.73;;;;;;;;;;5015672;28;20529;-48
2021/10/08 11:17:31;;;;;;;9.47;7.00;;;;;;;;;;5015463;28;20866;-49
2021/10/08 11:19:57;;;;;;;6.97;6.17;;;;;;;;;;5015483;28;20454;-47
2021/10/08 11:22:41;;;;;;;8.67;5.97;;;;;;;;;;5015336;28;20395;-48
2021/10/08 11:25:07;;;;;;;9.00;5.50;;;;;;;;;;5015370;28;21088;-47
2021/10/08 11:27:34;;;;;;;13.53;6.97;;;;;;;;;;5015188;28;20778;-47
2021/10/08 11:30:06;;;;;;;7.00;6.30;;;;;;;;;;5015237;28;20558;-46
2021/10/08 11:32:34;;;;;;;5.90;5.40;;;;;;;;;;5015096;28;20490;-46
2021/10/08 11:35:01;;;;;;;7.27;6.00;;;;;;;;;;5014359;28;20407;-47
2021/10/08 11:37:29;;;;;;;11.33;5.87;;;;;;;;;;5051023;22;20385;-52
2021/10/08 11:39:55;;;;;;;6.10;5.43;;;;;;;;;;5027100;28;20817;-48
2021/10/08 11:42:24;;;;;;;6.93;5.67;;;;;;;;;;5034163;28;20406;-48
2021/10/08 11:47:25;;;;;;;6.67;5.97;;;;;;;;;;5034427;28;20472;-49
2021/10/08 11:50:05;;;;;;;5.77;5.07;;;;;;;;;;5034098;28;20425;-49
2021/10/08 11:52:41;;;;;;;5.80;5.30;;;;;;;;;;5034624;28;20410;-48
2021/10/08 11:55:09;;;;;;;9.97;5.50;;;;;;;;;;5033710;28;20742;-49
2021/10/08 11:57:47;;;;;;;5.83;5.23;;;;;;;;;;5034605;28;20426;-49
2021/10/08 12:00:13;;;;;;;7.30;6.33;;;;;;;;;;5034621;28;20420;-49
2021/10/08 12:02:39;;;;;;;6.53;5.90;;;;;;;;;;5034212;28;20829;-49
2021/10/08 12:05:07;;;;;;;7.03;6.23;;;;;;;;;;5034436;28;20902;-50
2021/10/08 12:07:37;;;;;;;8.33;5.77;;;;;;;;;;5034534;28;20513;-48
2021/10/08 12:10:10;;;;;;;7.00;5.70;;;;;;;;;;5034504;28;20485;-48
2021/10/08 12:12:36;;;;;;;7.10;6.00;;;;;;;;;;5033914;28;20414;-49
2021/10/08 12:15:03;;;;;;;5.30;4.80;;;;;;;;;;5033200;28;20406;-48
2021/10/08 12:17:29;;;;;;;6.60;5.83;;;;;;;;;;5034134;28;20431;-48
2021/10/08 12:19:55;;;;;;;6.60;6.00;;;;;;;;;;5034162;28;20462;-48
2021/10/08 12:22:22;;;;;;;5.90;5.27;;;;;;;;;;5033898;28;20489;-48
2021/10/08 12:24:49;;;;;;;5.03;4.53;;;;;;;;;;5033979;28;20402;-48
2021/10/08 12:27:15;;;;;;;6.33;5.80;;;;;;;;;;5033069;28;20430;-48
2021/10/08 12:29:43;;;;;;;7.70;6.13;;;;;;;;;;5033484;28;20971;-48
2021/10/08 12:32:10;;;;;;;7.90;7.13;;;;;;;;;;5032411;28;20414;-48
2021/10/08 12:34:37;;;;;;;6.63;6.00;;;;;;;;;;5033984;28;20418;-48
2021/10/08 12:37:04;;;;;;;8.97;8.23;;;;;;;;;;5033849;28;20406;-49
2021/10/08 12:39:34;;;;;;;6.60;6.00;;;;;;;;;;5033676;28;20813;-48
2021/10/08 12:42:02;;;;;;;7.30;5.50;;;;;;;;;;5033426;28;20421;-49
2021/10/08 12:44:30;;;;;;;5.87;5.00;;;;;;;;;;5033672;28;20777;-48
2021/10/08 12:47:14;;;;;;;5.60;5.10;;;;;;;;;;5033457;28;20965;-48
2021/10/08 12:49:43;;;;;;;8.53;4.70;;;;;;;;;;5033690;28;20409;-49
2021/10/08 12:52:09;;;;;;;6.00;5.40;;;;;;;;;;5033076;28;20406;-49
2021/10/08 12:54:35;;;;;;;6.53;4.80;;;;;;;;;;5033059;28;20395;-49
2021/10/08 12:57:10;;;;;;;6.47;5.23;;;;;;;;;;5032429;28;20896;-48
2021/10/08 12:59:46;;;;;;;6.60;4.93;;;;;;;;;;5034703;28;20406;-48
2021/10/08 13:02:12;;;;;;;5.07;4.23;;;;;;;;;;5033021;28;20497;-49
2021/10/08 13:04:40;;;;;;;4.80;4.40;;;;;;;;;;5032178;28;20410;-49
2021/10/08 13:07:14;;;;;;;5.67;5.20;;;;;;;;;;5032586;28;20465;-48
2021/10/08 13:09:41;;;;;;;6.93;5.17;;;;;;;;;;5031868;28;20411;-50
2021/10/08 13:12:07;;;;;;;7.40;5.50;;;;;;;;;;5032574;28;20769;-48
2021/10/08 13:14:33;;;;;;;9.33;6.07;;;;;;;;;;5032494;28;20920;-51
2021/10/08 13:17:17;;;;;;;6.40;5.20;;;;;;;;;;5032105;28;20414;-48
2021/10/08 13:19:44;;;;;;;5.53;5.13;;;;;;;;;;5032880;28;20894;-48
2021/10/08 13:22:10;;;;;;;6.13;5.07;;;;;;;;;;5032906;28;20929;-48
2021/10/08 13:24:36;;;;;;;5.67;5.00;;;;;;;;;;5032950;28;20403;-48
2021/10/08 13:27:02;;;;;;;6.43;4.63;;;;;;;;;;5031648;28;20462;-48
2021/10/08 13:29:28;;;;;;;5.07;4.60;;;;;;;;;;5032792;28;20481;-48
2021/10/08 13:31:54;;;;;;;6.57;3.97;;;;;;;;;;5032688;28;20414;-48
2021/10/08 13:34:21;;;;;;;7.00;4.43;;;;;;;;;;5032781;28;20402;-48
2021/10/08 13:36:47;;;;;;;5.83;5.33;;;;;;;;;;5032712;28;20402;-49
2021/10/08 13:39:15;;;;;;;6.27;5.77;;;;;;;;;;5025482;28;20461;-48
2021/10/08 13:41:42;;;;;;;5.60;4.50;;;;;;;;;;5012371;28;20733;-48
2021/10/08 13:44:08;;;;;;;7.90;4.13;;;;;;;;;;5012752;28;20972;-48
2021/10/08 13:46:34;;;;;;;5.30;3.83;;;;;;;;;;5012776;28;20458;-48
2021/10/08 13:49:00;;;;;;;4.53;3.70;;;;;;;;;;5012646;28;20473;-48
2021/10/08 13:51:26;;;;;;;4.00;3.70;;;;;;;;;;5015529;28;20404;-48
2021/10/08 13:53:52;;;;;;;6.10;4.50;;;;;;;;;;5026334;28;20499;-48
2021/10/08 13:56:18;;;;;;;6.93;5.27;;;;;;;;;;5021599;28;20899;-51
2021/10/08 13:58:44;;;;;;;4.93;4.47;;;;;;;;;;5020570;28;20776;-49
2021/10/08 14:01:10;;;;;;;4.70;4.30;;;;;;;;;;5021087;28;20414;-48
2021/10/08 14:06:45;;;;;;;5.03;4.57;;;;;;;;;;5019323;28;20453;-48
2021/10/08 14:09:12;;;;;;;6.50;5.10;;;;;;;;;;5030311;28;20424;-49
2021/10/08 14:11:38;;;;;;;6.13;5.10;;;;;;;;;;5027824;28;20765;-53
2021/10/08 14:14:04;;;;;;;5.20;4.70;;;;;;;;;;5013178;28;20399;-49
2021/10/08 14:16:33;;;;;;;6.80;4.40;;;;;;;;;;5012198;28;20399;-50
2021/10/08 14:18:59;;;;;;;8.50;4.40;;;;;;;;;;5012219;28;20459;-48
2021/10/08 14:21:25;;;;;;;4.57;4.17;;;;;;;;;;5012380;28;20430;-49
2021/10/08 14:23:51;;;;;;;3.87;3.57;;;;;;;;;;5012057;28;20770;-48
2021/10/08 14:26:17;;;;;;;5.13;3.53;;;;;;;;;;5012107;28;20447;-49
2021/10/08 14:28:44;;;;;;;12.00;4.43;;;;;;;;;;5012086;28;20429;-48
2021/10/08 14:31:10;;;;;;;3.73;3.40;;;;;;;;;;5012173;28;20403;-48
2021/10/08 14:33:36;;;;;;;3.50;3.20;;;;;;;;;;5011999;28;20410;-48
2021/10/08 14:36:02;;;;;;;4.80;3.40;;;;;;;;;;5012058;28;20482;-49